Station: Hindmarsh Island  

  Atmospheric Gas Attenuation - ITU Rec 676-11   ----------------- dB/100km -----------------
Date Time Temp RH % AH g/m3 Dew Point Wind Direction Speed kph Gust kph Barometer mB Rainfall Since 9am 24GHz 47GHz 76GHz 122GHz 134GHz 241GHz
03/05 02:00 15 76 9.75 10.8 13 20 1009 1.8 22.0 27.3 43.6 114.8 111.8 385.4
03/05 01:50 15.1 74 9.55 10.5 13 17 1009.1 1.8 21.6 26.9 42.8 112.5 108.9 375.6
03/05 01:40 15.2 73 9.48 10.4 9 11 1009.1 1.6 21.4 26.8 42.4 111.6 107.9 371.8
03/05 01:30 15.4 72 9.46 10.4 17 26 1009.1 1.6 21.4 26.7 42.2 111.1 107.3 370.0
03/05 01:20 15.1 74 9.55 10.5 15 17 1009.3 1.6 21.6 26.9 42.8 112.5 109.0 375.6
03/05 01:10 15.4 71 9.33 10.2 22 28 1009.2 1.6 21.1 26.5 41.7 109.7 105.6 364.0
03/05 01:00 15.5 70 9.25 10.1 19 26 1009.2 1.6 20.9 26.3 41.4 108.7 104.4 359.8
03/05 00:50 15.5 70 9.25 10.1 17 22 1009.3 1.6 20.9 26.3 41.4 108.7 104.4 359.8
03/05 00:40 15.7 69 9.23 10 19 20 1009.3 1.6 20.8 26.2 41.2 108.2 103.9 358.0
03/05 00:30 15.7 68 9.1 9.8 20 32 1009.4 1.6 20.6 26.0 40.7 106.8 102.2 352.1
03/05 00:20 15.7 68 9.1 9.8 19 20 1009.5 1.6 20.6 26.0 40.7 106.8 102.2 352.1
03/05 00:10 15.7 68 9.1 9.8 17 19 1009.6 1.6 20.6 26.0 40.7 106.8 102.2 352.1
03/05 00:00 15.7 68 9.1 9.8 13 19 1009.8 1.6 20.6 26.0 40.7 106.9 102.2 352.2
02/05 23:50 15.7 69 9.23 10 17 20 1009.8 1.6 20.8 26.2 41.2 108.3 103.9 358.1
02/05 23:40 15.3 73 9.53 10.5 11 15 1009.7 1.6 21.5 26.8 42.6 112.0 108.4 373.9
02/05 23:30 15.6 74 9.84 11 15 20 1009.8 1.6 22.2 27.2 43.7 115.0 112.2 387.0
02/05 23:20 15.2 79 10.25 11.6 15 15 1009.9 1.6 23.1 28.1 45.6 120.1 118.3 408.5
02/05 23:10 15.2 79 10.25 11.6 13 15 1009.9 1.6 23.1 28.1 45.6 120.1 118.3 408.5
02/05 23:00 15.3 79 10.32 11.7 15 20 1010 1.6 23.2 28.2 45.9 120.7 119.2 411.3
02/05 22:50 15.3 80 10.45 11.9 19 20 1010 1.6 23.5 28.4 46.4 122.2 121.0 417.6
02/05 22:40 15.1 80 10.32 11.7 17 17 1010.2 1.6 23.2 28.2 46.0 121.1 119.5 412.5
02/05 22:30 15.1 80 10.32 11.7 15 17 1010.2 1.6 23.2 28.2 46.0 121.1 119.5 412.5
02/05 22:20 15.3 79 10.32 11.7 13 15 1010.2 1.6 23.2 28.2 45.9 120.8 119.2 411.4
02/05 22:10 15.7 78 10.44 11.9 15 17 1010.2 1.6 23.4 28.2 46.2 121.5 120.2 415.0
02/05 22:00 15.7 78 10.44 11.9 15 20 1010.2 1.6 23.4 28.2 46.2 121.5 120.2 415.0
02/05 21:50 15.7 78 10.44 11.9 15 17 1010.2 1.6 23.4 28.2 46.2 121.5 120.2 415.0
02/05 21:40 15.7 76 10.17 11.5 7 11 1010.2 1.6 22.9 27.8 45.0 118.5 116.5 402.2
02/05 21:30 15.9 75 10.16 11.5 15 24 1010.2 1.6 22.8 27.7 44.9 118.1 116.1 400.7
02/05 21:20 15.7 76 10.17 11.5 11 13 1010.2 1.6 22.9 27.8 45.0 118.5 116.5 402.2
02/05 21:10 15.7 76 10.17 11.5 9 11 1010.1 1.6 22.9 27.8 45.0 118.5 116.5 402.1
02/05 21:00 15.7 75 10.03 11.3 19 26 1009.8 1.6 22.6 27.5 44.4 116.9 114.6 395.4
02/05 20:50 15.9 74 10.02 11.3 19 20 1009.7 1.6 22.5 27.4 44.3 116.5 114.1 393.9
02/05 20:40 15.6 76 10.11 11.4 19 20 1009.8 1.6 22.7 27.7 44.8 117.9 115.8 399.7
02/05 20:30 15.6 78 10.37 11.8 20 28 1009.6 1.6 23.3 28.1 45.9 120.8 119.3 412.0
02/05 20:20 15.2 81 10.51 12 17 19 1009.5 1.6 23.6 28.5 46.7 123.0 121.9 420.9
02/05 20:10 15.2 83 10.77 12.3 17 19 1009.5 1.6 24.2 28.9 47.8 125.9 125.5 433.5
02/05 20:00 15.1 84 10.84 12.4 19 22 1009.4 1.6 24.3 29.1 48.2 126.8 126.6 437.4
02/05 19:50 14.9 85 10.83 12.4 17 17 1009.5 1.6 24.3 29.1 48.3 127.1 126.8 438.1
02/05 19:40 14.7 86 10.83 12.4 15 17 1009.6 1.6 24.3 29.2 48.4 127.4 127.2 439.3
02/05 19:30 14.6 87 10.89 12.5 15 17 1009.5 1.6 24.5 29.3 48.7 128.2 128.2 442.8
02/05 19:20 14.6 87 10.89 12.5 13 15 1009.6 1.6 24.5 29.3 48.7 128.3 128.2 442.8
02/05 19:10 14.6 87 10.89 12.5 13 15 1009.6 1.6 24.5 29.3 48.7 128.3 128.2 442.8
02/05 19:00 14.7 87 10.95 12.6 15 17 1009.6 1.6 24.6 29.4 48.9 128.8 128.9 445.2
02/05 18:50 14.6 87 10.89 12.5 13 17 1009.5 1.6 24.5 29.3 48.7 128.2 128.2 442.8
02/05 18:40 14.6 87 10.89 12.5 15 17 1009.4 1.6 24.5 29.3 48.7 128.2 128.2 442.7
02/05 18:30 14.6 86 10.76 12.3 11 13 1009.5 1.6 24.2 29.1 48.1 126.8 126.4 436.4
02/05 18:20 14.7 85 10.7 12.2 11 13 1009.3 1.6 24.0 29.0 47.8 125.9 125.3 432.8
02/05 18:10 15.1 84 10.84 12.4 11 11 1009.3 1.6 24.3 29.1 48.2 126.8 126.6 437.4
02/05 18:00 15.3 83 10.84 12.4 9 11 1009.2 1.6 24.3 29.0 48.0 126.5 126.3 436.2
02/05 17:50 15.6 82 10.9 12.5 7 9 1009.1 1.6 24.4 29.0 48.1 126.7 126.6 437.4
02/05 17:40 15.9 81 10.97 12.6 9 11 1009 1.6 24.6 29.0 48.2 127.0 127.1 439.1
02/05 17:30 16 80 10.9 12.6 15 20 1009 1.6 24.4 28.9 47.8 126.0 125.9 435.1
02/05 17:20 16 80 10.9 12.6 15 19 1009.1 1.6 24.4 28.9 47.9 126.0 126.0 435.2
02/05 17:10 15.9 82 11.1 12.8 17 20 1009 1.6 24.8 29.2 48.8 128.4 128.9 445.4
02/05 17:00 15.8 83 11.17 12.9 13 17 1009 1.6 25.0 29.4 49.1 129.4 130.0 449.4
02/05 16:50 15.7 83 11.1 12.8 9 11 1008.8 1.6 24.8 29.3 48.9 128.7 129.2 446.5
02/05 16:40 15.6 83 11.04 12.7 15 19 1009.1 1.6 24.7 29.2 48.7 128.3 128.6 444.2
02/05 16:30 15.5 82 10.84 12.4 17 24 1008.9 1.6 24.3 28.9 47.9 126.1 125.9 435.0
02/05 16:20 15.4 81 10.64 12.2 22 28 1008.8 1.6 23.9 28.6 47.1 124.0 123.3 425.8
02/05 16:10 15.4 84 11.04 12.7 26 30 1008.6 1.6 24.7 29.3 48.8 128.5 128.9 445.2
02/05 16:00 16.3 86 11.93 14 17 28 1008.4 1.6 26.6 30.5 52.0 137.2 139.8 483.7
02/05 15:50 16.4 85 11.86 13.9 19 22 1008.3 1.6 26.4 30.4 51.7 136.2 138.6 479.5
02/05 15:40 16.4 85 11.86 13.9 17 20 1008.4 1.6 26.4 30.4 51.7 136.2 138.7 479.6
02/05 15:30 16.5 86 12.08 14.2 15 22 1008.3 1.6 26.9 30.7 52.5 138.6 141.6 489.9
02/05 15:20 16.5 86 12.08 14.2 17 20 1008.3 1.6 26.9 30.7 52.5 138.6 141.6 489.9
02/05 15:10 16.2 87 12 14 15 17 1008.5 1.6 26.8 30.7 52.4 138.2 141.0 487.8
02/05 15:00 15.9 87 11.78 13.7 15 20 1008.2 1.6 26.3 30.4 51.6 136.1 138.4 478.6
02/05 14:50 15.8 87 11.71 13.6 17 20 1008.2 1.6 26.2 30.3 51.4 135.5 137.6 475.8
02/05 14:40 15.8 87 11.71 13.6 22 26 1008.6 1.6 26.2 30.3 51.4 135.5 137.6 475.9
02/05 14:30 16.1 88 12.06 14.1 20 32 1008.5 1.6 26.9 30.8 52.7 139.1 142.1 491.5
02/05 14:20 16.3 89 12.35 14.5 17 20 1008.1 1.4 27.5 31.2 53.9 142.1 145.8 504.6
02/05 14:10 16.6 88 12.43 14.6 17 20 1008.5 1.2 27.6 31.3 54.0 142.5 146.5 506.8
02/05 14:00 16.8 87 12.44 14.6 19 24 1008.2 0.8 27.7 31.2 53.9 142.2 146.2 505.9
02/05 13:50 17 82 11.86 13.9 30 35 1008.4 0.2 26.4 30.1 51.3 135.1 137.6 475.9
02/05 13:40 17.6 82 12.3 14.5 15 19 1008.2 0 27.3 30.7 52.8 139.1 142.7 493.7
02/05 13:30 17.7 80 12.07 14.2 17 24 1008.1 0 26.8 30.3 51.7 136.3 139.2 481.7
02/05 13:20 18.2 76 11.81 13.9 20 26 1008.3 0 26.2 29.6 50.3 132.5 134.7 466.1
02/05 13:10 18.8 69 11.11 13 30 37 1008.4 0 24.7 28.3 47.0 123.8 124.2 429.4
02/05 13:00 19.2 66 10.88 12.7 20 28 1008 0 24.2 27.8 45.8 120.6 120.5 416.4
02/05 12:50 20.2 62 10.84 12.7 20 26 1007.8 0 24.0 27.4 45.1 118.7 118.4 409.2
02/05 12:40 20.6 62 11.1 13.1 35 43 1008 0 24.6 27.7 45.9 120.8 121.2 419.0
02/05 12:30 20.9 66 12.02 14.3 28 39 1008.3 0 26.5 29.1 49.4 130.3 132.9 460.0
02/05 12:20 21.1 66 12.16 14.5 33 41 1008.2 0 26.8 29.2 49.9 131.5 134.4 465.3
02/05 12:10 22.3 60 11.85 14.2 32 43 1008 0 26.0 28.3 47.9 126.1 128.2 444.0
02/05 12:00 21.8 60 11.51 13.9 39 54 1007.6 0 25.4 27.9 46.8 123.3 124.6 431.1
02/05 11:50 22.7 55 11.11 13.2 32 39 1007.9 0 24.5 27.0 44.7 117.8 118.1 408.4
02/05 11:40 22.9 50 10.22 11.9 35 48 1007.9 0 22.6 25.6 41.2 108.4 106.7 368.6
02/05 11:30 23.1 49 10.13 11.8 28 46 1007.9 0 22.4 25.4 40.8 107.3 105.3 363.8
02/05 11:20 24.2 47 10.34 12.2 26 39 1008.1 0 22.8 25.4 41.0 107.9 106.4 367.8
02/05 11:10 23.7 50 10.69 12.7 24 39 1008.2 0 23.5 26.1 42.6 112.1 111.4 385.2
02/05 11:00 22.7 52 10.51 12.3 26 37 1008.2 0 23.2 26.1 42.4 111.7 110.5 382.2
02/05 10:50 21.5 56 10.56 12.4 26 35 1008.3 0 23.4 26.6 43.3 113.9 112.9 390.2
02/05 10:40 21.5 55 10.37 12.1 26 35 1008.3 0 23.0 26.3 42.5 111.9 110.5 381.8
02/05 10:30 21.1 59 10.87 12.8 32 46 1008.1 0 24.0 27.2 44.7 117.7 117.4 406.0
02/05 10:20 20.7 60 10.8 12.7 32 39 1008.2 0 23.9 27.2 44.6 117.5 117.1 405.0
02/05 10:10 20.5 62 11.03 13 26 33 1008.5 0 24.4 27.6 45.7 120.3 120.5 416.5
02/05 10:00 20.6 62 11.1 13.1 30 46 1008.7 0 24.6 27.7 45.9 120.9 121.2 419.3
02/05 09:50 20.5 63 11.21 13.2 37 43 1009.1 0 24.8 27.9 46.4 122.3 122.9 425.0
02/05 09:40 19.9 65 11.17 13.1 30 39 1009.1 0 24.7 28.1 46.6 122.8 123.3 426.4
02/05 09:30 21.8 52 9.98 11.5 43 65 1008.9 0 22.1 25.6 40.9 107.6 105.3 363.5

Last Refresh: 03-May-2026 02:07:39

Bureau of Meteorology